Time;durP1;ratioP1;P1;durP2;ratioP2;P2;SDS_P1;SDS_P2;PMS_P1;PMS_P2;Temp;Humidity;BMP_temperature;BMP_pressure;BME280_temperature;BME280_humidity;BME280_pressure;Samples;Min_cycle;Max_cycle;Signal;HPM_P1;HPM_P2
2022/09/30 00:01:40;;;;;;;19.60;11.48;;;;;;;;;;4894960;29;20418;-60
2022/09/30 00:04:09;;;;;;;16.67;11.18;;;;;;;;;;4893775;29;20049;-60
2022/09/30 00:06:34;;;;;;;19.30;11.23;;;;;;;;;;4893172;29;20092;-61
2022/09/30 00:09:01;;;;;;;17.23;11.10;;;;;;;;;;4894586;29;20426;-61
2022/09/30 00:11:32;;;;;;;19.92;11.50;;;;;;;;;;4895345;29;20033;-60
2022/09/30 00:13:58;;;;;;;22.17;11.52;;;;;;;;;;4899119;29;20088;-61
2022/09/30 00:16:27;;;;;;;19.00;12.20;;;;;;;;;;4879289;29;20505;-61
2022/09/30 00:18:54;;;;;;;22.02;11.98;;;;;;;;;;4880631;29;20069;-60
2022/09/30 00:21:20;;;;;;;19.58;11.95;;;;;;;;;;4890697;29;20032;-61
2022/09/30 00:23:45;;;;;;;19.88;12.55;;;;;;;;;;4897524;29;20036;-60
2022/09/30 00:26:14;;;;;;;22.40;12.13;;;;;;;;;;4898450;29;20411;-61
2022/09/30 00:28:41;;;;;;;21.75;11.30;;;;;;;;;;4896388;29;20040;-61
2022/09/30 00:31:10;;;;;;;21.15;12.10;;;;;;;;;;4896554;29;20037;-61
2022/09/30 00:33:35;;;;;;;22.67;12.07;;;;;;;;;;4897786;29;20052;-60
2022/09/30 00:36:02;;;;;;;22.65;11.75;;;;;;;;;;4897185;29;20108;-61
2022/09/30 00:38:28;;;;;;;23.17;11.88;;;;;;;;;;4896354;29;20111;-61
2022/09/30 00:40:55;;;;;;;20.17;11.70;;;;;;;;;;4896290;29;20116;-61
2022/09/30 00:43:40;;;;;;;19.40;11.43;;;;;;;;;;4895902;29;20035;-61
2022/09/30 00:46:28;;;;;;;21.15;11.70;;;;;;;;;;4896189;29;20044;-61
2022/09/30 00:48:55;;;;;;;22.35;12.07;;;;;;;;;;4883107;29;20067;-60
2022/09/30 00:51:35;;;;;;;20.40;11.98;;;;;;;;;;4883295;29;20048;-59
2022/09/30 00:54:05;;;;;;;18.88;11.18;;;;;;;;;;4895064;29;20033;-62
2022/09/30 00:56:36;;;;;;;21.42;11.90;;;;;;;;;;4895462;29;20052;-60
2022/09/30 00:59:06;;;;;;;21.08;11.82;;;;;;;;;;4888076;29;20029;-61
2022/09/30 01:01:33;;;;;;;19.92;12.30;;;;;;;;;;4896127;29;20040;-61
2022/09/30 01:04:02;;;;;;;20.20;12.73;;;;;;;;;;4896003;29;20079;-60
2022/09/30 01:06:27;;;;;;;22.73;12.32;;;;;;;;;;4892953;29;20496;-61
2022/09/30 01:08:54;;;;;;;19.70;11.88;;;;;;;;;;4895608;29;20041;-61
2022/09/30 01:11:20;;;;;;;18.77;12.57;;;;;;;;;;4890586;29;20389;-61
2022/09/30 01:13:49;;;;;;;22.30;12.02;;;;;;;;;;4897234;29;20051;-61
2022/09/30 01:16:49;;;;;;;20.23;12.57;;;;;;;;;;4892037;29;20467;-60
2022/09/30 01:19:36;;;;;;;19.50;12.80;;;;;;;;;;4882362;29;20040;-60
2022/09/30 01:22:38;;;;;;;17.70;11.90;;;;;;;;;;4898724;29;20509;-60
2022/09/30 01:25:32;;;;;;;21.65;13.35;;;;;;;;;;4895359;29;20527;-60
2022/09/30 01:28:32;;;;;;;24.63;13.18;;;;;;;;;;4897269;29;20044;-60
2022/09/30 01:31:31;;;;;;;21.83;13.10;;;;;;;;;;4895401;29;20466;-60
2022/09/30 01:34:28;;;;;;;23.05;14.32;;;;;;;;;;4892609;29;20025;-61
2022/09/30 01:37:11;;;;;;;25.52;15.20;;;;;;;;;;4886108;29;20481;-61
2022/09/30 01:39:37;;;;;;;25.25;14.32;;;;;;;;;;4895111;29;20410;-60
2022/09/30 01:42:21;;;;;;;20.83;14.13;;;;;;;;;;4889739;29;20045;-61
2022/09/30 01:45:12;;;;;;;23.85;14.55;;;;;;;;;;4880736;29;20504;-60
2022/09/30 01:47:52;;;;;;;21.70;13.95;;;;;;;;;;4878444;29;20576;-60
2022/09/30 01:50:23;;;;;;;24.65;15.10;;;;;;;;;;4889025;29;20402;-61
2022/09/30 01:53:02;;;;;;;25.48;15.02;;;;;;;;;;4897374;29;20486;-60
2022/09/30 01:55:44;;;;;;;23.73;15.38;;;;;;;;;;4895228;29;20028;-60
2022/09/30 01:58:25;;;;;;;20.95;13.48;;;;;;;;;;4887348;29;20032;-61
2022/09/30 02:00:55;;;;;;;20.77;13.15;;;;;;;;;;4864116;29;20040;-60
2022/09/30 02:03:29;;;;;;;22.90;13.48;;;;;;;;;;4888694;29;20040;-60
2022/09/30 02:06:04;;;;;;;21.02;13.52;;;;;;;;;;4894612;29;20048;-60
2022/09/30 02:08:50;;;;;;;20.63;13.48;;;;;;;;;;4897030;29;20036;-60
2022/09/30 02:11:24;;;;;;;26.85;13.55;;;;;;;;;;4892898;29;20546;-60
2022/09/30 02:14:00;;;;;;;23.90;12.93;;;;;;;;;;4886167;29;20055;-60
2022/09/30 02:16:40;;;;;;;21.55;12.48;;;;;;;;;;4895910;29;20048;-60
2022/09/30 02:19:31;;;;;;;21.60;13.33;;;;;;;;;;4895828;29;20044;-60
2022/09/30 02:22:15;;;;;;;24.70;14.68;;;;;;;;;;4895486;29;20040;-60
2022/09/30 02:24:43;;;;;;;25.63;15.48;;;;;;;;;;4896361;29;20032;-61
2022/09/30 02:27:16;;;;;;;27.10;15.15;;;;;;;;;;4892540;29;20411;-60
2022/09/30 02:29:48;;;;;;;23.05;14.38;;;;;;;;;;4894155;29;20386;-61
2022/09/30 02:32:24;;;;;;;20.20;13.20;;;;;;;;;;4893724;29;20036;-60
2022/09/30 02:34:56;;;;;;;23.70;12.73;;;;;;;;;;4888101;29;20413;-60
2022/09/30 02:37:35;;;;;;;20.02;12.50;;;;;;;;;;4894723;29;20040;-60
2022/09/30 02:40:12;;;;;;;20.70;12.52;;;;;;;;;;4897186;29;20040;-60
2022/09/30 02:42:39;;;;;;;21.60;12.02;;;;;;;;;;4893765;29;20047;-61
2022/09/30 02:45:09;;;;;;;20.60;12.23;;;;;;;;;;4896612;29;20121;-61
2022/09/30 02:47:40;;;;;;;20.45;12.10;;;;;;;;;;4876755;29;20142;-60
2022/09/30 02:50:25;;;;;;;;;;;;;;;;;;4878711;29;20069;-61
2022/09/30 02:53:03;;;;;;;20.40;11.43;;;;;;;;;;4893861;29;20002;-60
2022/09/30 02:56:02;;;;;;;21.50;12.45;;;;;;;;;;4894047;29;20418;-60
2022/09/30 02:58:28;;;;;;;18.50;11.63;;;;;;;;;;4893850;29;20375;-60
2022/09/30 03:00:55;;;;;;;19.83;11.80;;;;;;;;;;4893807;29;20057;-60
2022/09/30 03:03:26;;;;;;;19.13;12.25;;;;;;;;;;4891352;29;20052;-60
2022/09/30 03:05:52;;;;;;;20.17;12.00;;;;;;;;;;4881101;29;20080;-61
2022/09/30 03:08:17;;;;;;;19.52;11.80;;;;;;;;;;4860690;29;20061;-60
2022/09/30 03:10:43;;;;;;;19.95;11.40;;;;;;;;;;4886325;29;20060;-60
2022/09/30 03:13:30;;;;;;;19.20;11.40;;;;;;;;;;4893021;29;20470;-60
2022/09/30 03:16:14;;;;;;;17.55;10.57;;;;;;;;;;4894420;29;20033;-60
2022/09/30 03:19:00;;;;;;;19.75;11.27;;;;;;;;;;4895354;29;20048;-61
2022/09/30 03:21:28;;;;;;;17.73;11.05;;;;;;;;;;4895722;29;20036;-61
2022/09/30 03:24:02;;;;;;;20.17;12.00;;;;;;;;;;4894973;29;20041;-61
2022/09/30 03:26:34;;;;;;;17.05;11.57;;;;;;;;;;4893520;29;20040;-61
2022/09/30 03:29:16;;;;;;;17.35;11.82;;;;;;;;;;4892771;29;20441;-61
2022/09/30 03:32:03;;;;;;;18.63;10.68;;;;;;;;;;4894930;29;20075;-60
2022/09/30 03:34:48;;;;;;;18.08;11.32;;;;;;;;;;4892032;29;20084;-61
2022/09/30 03:37:32;;;;;;;16.80;10.80;;;;;;;;;;4895206;29;20040;-61
2022/09/30 03:40:16;;;;;;;16.67;10.88;;;;;;;;;;4894278;29;20477;-61
2022/09/30 03:42:53;;;;;;;19.98;11.45;;;;;;;;;;4896948;29;20036;-61
2022/09/30 03:45:25;;;;;;;16.77;11.43;;;;;;;;;;4889649;29;20033;-60
2022/09/30 03:47:55;;;;;;;19.48;11.75;;;;;;;;;;4900353;29;20051;-61
2022/09/30 03:50:23;;;;;;;19.90;12.07;;;;;;;;;;4898300;29;20115;-60
2022/09/30 03:52:49;;;;;;;22.77;12.43;;;;;;;;;;4901578;29;20393;-61
2022/09/30 03:55:16;;;;;;;17.70;11.60;;;;;;;;;;4898057;29;20064;-61
2022/09/30 03:57:43;;;;;;;17.23;11.55;;;;;;;;;;4902228;29;20033;-61
2022/09/30 04:00:10;;;;;;;16.75;10.85;;;;;;;;;;4899103;29;20037;-61
2022/09/30 04:02:36;;;;;;;17.95;11.07;;;;;;;;;;4892275;29;20108;-61
2022/09/30 04:05:04;;;;;;;20.35;13.27;;;;;;;;;;4900531;29;20246;-62
2022/09/30 04:07:30;;;;;;;23.77;14.73;;;;;;;;;;4895411;29;20047;-61
2022/09/30 04:09:55;;;;;;;20.70;12.25;;;;;;;;;;4901349;29;20048;-59
2022/09/30 04:12:21;;;;;;;18.52;11.65;;;;;;;;;;4900022;29;20052;-59
2022/09/30 04:14:46;;;;;;;21.30;12.48;;;;;;;;;;4900469;29;20032;-60
2022/09/30 04:17:11;;;;;;;20.73;11.57;;;;;;;;;;4899573;29;20128;-59
2022/09/30 04:19:39;;;;;;;18.98;12.57;;;;;;;;;;4900955;29;20454;-59
2022/09/30 04:22:08;;;;;;;17.88;10.80;;;;;;;;;;4899099;29;20062;-59
2022/09/30 04:24:34;;;;;;;19.63;12.18;;;;;;;;;;4899529;29;20653;-59
2022/09/30 04:26:59;;;;;;;21.15;11.15;;;;;;;;;;4898245;29;20146;-59
2022/09/30 04:29:26;;;;;;;17.67;11.38;;;;;;;;;;4880097;29;20093;-58
2022/09/30 04:31:51;;;;;;;19.35;11.38;;;;;;;;;;4885896;29;20061;-59
2022/09/30 04:34:17;;;;;;;21.13;11.55;;;;;;;;;;4899229;29;20045;-59
2022/09/30 04:36:42;;;;;;;17.25;10.75;;;;;;;;;;4900318;29;20454;-59
2022/09/30 04:39:08;;;;;;;23.10;12.05;;;;;;;;;;4900037;29;20057;-60
2022/09/30 04:41:33;;;;;;;19.33;11.23;;;;;;;;;;4898355;29;20029;-61
2022/09/30 04:43:59;;;;;;;18.83;11.52;;;;;;;;;;4899400;29;20043;-59
2022/09/30 04:46:25;;;;;;;19.27;10.63;;;;;;;;;;4899549;29;20136;-60
2022/09/30 04:48:50;;;;;;;15.35;10.25;;;;;;;;;;4900893;29;20104;-59
2022/09/30 04:51:20;;;;;;;16.80;10.52;;;;;;;;;;4898447;29;20096;-60
2022/09/30 04:53:46;;;;;;;20.70;10.45;;;;;;;;;;4897521;29;20035;-60
2022/09/30 04:56:13;;;;;;;16.08;10.05;;;;;;;;;;4898857;29;20119;-60
2022/09/30 04:58:38;;;;;;;18.98;10.38;;;;;;;;;;4897320;29;20474;-59
2022/09/30 05:01:10;;;;;;;18.33;10.38;;;;;;;;;;4899249;29;20031;-60
2022/09/30 05:03:35;;;;;;;16.33;10.70;;;;;;;;;;4879583;29;20033;-60
2022/09/30 05:06:02;;;;;;;19.35;10.45;;;;;;;;;;4887205;29;20075;-59
2022/09/30 05:08:27;;;;;;;15.63;9.95;;;;;;;;;;4897246;29;20044;-58
2022/09/30 05:10:57;;;;;;;21.58;12.82;;;;;;;;;;4897379;29;20097;-60
2022/09/30 05:13:32;;;;;;;20.58;11.43;;;;;;;;;;4862595;29;20395;-59
2022/09/30 05:15:57;;;;;;;17.25;10.63;;;;;;;;;;4893023;29;20040;-60
2022/09/30 05:18:25;;;;;;;21.65;12.07;;;;;;;;;;4880091;29;20040;-60
2022/09/30 05:20:51;;;;;;;20.77;12.15;;;;;;;;;;4897756;29;20037;-60
2022/09/30 05:23:18;;;;;;;23.17;11.68;;;;;;;;;;4897175;29;20047;-60
2022/09/30 05:25:44;;;;;;;20.67;12.25;;;;;;;;;;4898371;29;20072;-59
2022/09/30 05:28:09;;;;;;;17.38;11.43;;;;;;;;;;4892939;29;20037;-59
2022/09/30 05:30:35;;;;;;;20.17;12.57;;;;;;;;;;4897774;29;20104;-60
2022/09/30 05:33:00;;;;;;;24.27;13.38;;;;;;;;;;4894626;29;20046;-56
2022/09/30 05:35:25;;;;;;;20.67;12.45;;;;;;;;;;4886825;29;20455;-60
2022/09/30 05:37:51;;;;;;;21.77;12.90;;;;;;;;;;4893582;29;20029;-61
2022/09/30 05:40:16;;;;;;;20.65;12.52;;;;;;;;;;4896856;29;20037;-61
2022/09/30 05:42:42;;;;;;;21.05;12.23;;;;;;;;;;4891836;29;20040;-61
2022/09/30 05:45:07;;;;;;;18.13;11.95;;;;;;;;;;4896991;29;20500;-61
2022/09/30 05:47:33;;;;;;;18.98;12.00;;;;;;;;;;4896740;29;20689;-61
2022/09/30 05:49:59;;;;;;;19.98;12.40;;;;;;;;;;4897054;29;20037;-61
2022/09/30 05:52:25;;;;;;;19.45;11.82;;;;;;;;;;4896035;29;20039;-61
2022/09/30 05:54:50;;;;;;;20.80;12.57;;;;;;;;;;4895408;29;20665;-61
2022/09/30 05:57:16;;;;;;;21.85;12.48;;;;;;;;;;4878671;29;20037;-60
2022/09/30 05:59:42;;;;;;;25.40;13.07;;;;;;;;;;4880073;29;20041;-60
2022/09/30 06:02:08;;;;;;;23.85;14.55;;;;;;;;;;4895113;29;20064;-61
2022/09/30 06:04:34;;;;;;;26.92;13.95;;;;;;;;;;4887010;29;20037;-59
2022/09/30 06:06:59;;;;;;;21.67;13.15;;;;;;;;;;4893283;29;20059;-60
2022/09/30 06:09:25;;;;;;;23.17;12.52;;;;;;;;;;4893949;29;20032;-61
2022/09/30 06:11:51;;;;;;;20.55;12.52;;;;;;;;;;4891697;29;20036;-60
2022/09/30 06:14:18;;;;;;;21.88;12.95;;;;;;;;;;4892863;29;20033;-61
2022/09/30 06:16:44;;;;;;;21.27;11.88;;;;;;;;;;4887903;29;20044;-60
2022/09/30 06:19:10;;;;;;;21.10;12.50;;;;;;;;;;4894022;29;20036;-60
2022/09/30 06:21:35;;;;;;;20.65;12.68;;;;;;;;;;4896335;29;20212;-60
2022/09/30 06:24:01;;;;;;;19.95;11.88;;;;;;;;;;4895420;29;20044;-60
2022/09/30 06:26:26;;;;;;;21.80;13.80;;;;;;;;;;4896532;29;20371;-60
2022/09/30 06:28:52;;;;;;;25.02;14.48;;;;;;;;;;4896674;29;20036;-61
2022/09/30 06:31:17;;;;;;;26.80;14.35;;;;;;;;;;4895536;29;20040;-61
2022/09/30 06:33:43;;;;;;;22.10;13.82;;;;;;;;;;4892142;29;20040;-61
2022/09/30 06:36:09;;;;;;;25.50;13.93;;;;;;;;;;4897094;29;20084;-61
2022/09/30 06:38:39;;;;;;;24.83;14.63;;;;;;;;;;4894996;29;20454;-61
2022/09/30 06:41:05;;;;;;;29.25;16.27;;;;;;;;;;4896790;29;20033;-61
2022/09/30 06:43:31;;;;;;;29.00;16.65;;;;;;;;;;4896340;29;20048;-61
2022/09/30 06:45:56;;;;;;;27.45;16.00;;;;;;;;;;4897086;29;20032;-60
2022/09/30 06:48:22;;;;;;;29.17;17.30;;;;;;;;;;4895224;29;20096;-60
2022/09/30 06:50:52;;;;;;;27.35;16.80;;;;;;;;;;4894196;29;20051;-61
2022/09/30 06:53:17;;;;;;;28.70;17.48;;;;;;;;;;4895327;29;20051;-61
2022/09/30 06:55:42;;;;;;;28.95;17.55;;;;;;;;;;4894553;29;20045;-60
2022/09/30 06:58:14;;;;;;;29.27;18.20;;;;;;;;;;4894392;29;20043;-61
2022/09/30 07:00:39;;;;;;;29.98;17.27;;;;;;;;;;4892544;29;20379;-61
2022/09/30 07:03:08;;;;;;;30.65;18.17;;;;;;;;;;4895362;29;20035;-60
2022/09/30 07:05:35;;;;;;;27.88;17.40;;;;;;;;;;4894130;29;20681;-61
2022/09/30 07:08:00;;;;;;;28.27;17.55;;;;;;;;;;4894491;29;20406;-59
2022/09/30 07:10:25;;;;;;;28.08;17.38;;;;;;;;;;4878030;29;20033;-60
2022/09/30 07:12:52;;;;;;;23.92;16.38;;;;;;;;;;4893909;29;20036;-60
2022/09/30 07:15:22;;;;;;;26.00;17.20;;;;;;;;;;4895041;29;20119;-60
2022/09/30 07:17:57;;;;;;;27.33;16.80;;;;;;;;;;4892231;29;20036;-61
2022/09/30 07:20:23;;;;;;;25.83;17.17;;;;;;;;;;4886267;29;20588;-60
2022/09/30 07:22:49;;;;;;;26.08;15.75;;;;;;;;;;4895339;29;20075;-60
2022/09/30 07:25:14;;;;;;;25.67;15.75;;;;;;;;;;4895060;29;20174;-60
2022/09/30 07:27:40;;;;;;;25.40;16.30;;;;;;;;;;4893149;29;20043;-62
2022/09/30 07:30:06;;;;;;;25.65;17.23;;;;;;;;;;4894731;29;20123;-61
2022/09/30 07:32:31;;;;;;;23.33;15.05;;;;;;;;;;4891005;29;20327;-60
2022/09/30 07:34:57;;;;;;;22.38;14.27;;;;;;;;;;4893281;29;20120;-60
2022/09/30 07:37:23;;;;;;;25.40;15.45;;;;;;;;;;4891083;29;20069;-60
2022/09/30 07:39:49;;;;;;;27.50;15.90;;;;;;;;;;4893494;29;20080;-60
2022/09/30 07:42:20;;;;;;;25.88;16.52;;;;;;;;;;4882803;29;20041;-59
2022/09/30 07:44:47;;;;;;;27.10;15.50;;;;;;;;;;4890926;29;20036;-60
2022/09/30 07:47:14;;;;;;;29.85;16.52;;;;;;;;;;4889521;29;20047;-59
2022/09/30 07:49:41;;;;;;;23.17;16.02;;;;;;;;;;4890539;29;20463;-60
2022/09/30 07:52:07;;;;;;;29.17;16.80;;;;;;;;;;4892639;29;20028;-59
2022/09/30 07:54:33;;;;;;;23.95;16.80;;;;;;;;;;4892448;29;20028;-59
2022/09/30 07:57:00;;;;;;;28.48;16.88;;;;;;;;;;4894224;29;20466;-59
2022/09/30 07:59:27;;;;;;;27.58;17.05;;;;;;;;;;4893985;29;20032;-59
2022/09/30 08:01:53;;;;;;;25.08;17.20;;;;;;;;;;4894069;29;20035;-59
2022/09/30 08:04:19;;;;;;;24.60;15.38;;;;;;;;;;4893496;29;20032;-58
2022/09/30 08:06:47;;;;;;;25.73;15.35;;;;;;;;;;4876822;29;20052;-59
2022/09/30 08:09:16;;;;;;;28.38;16.10;;;;;;;;;;4892841;29;20048;-59
2022/09/30 08:11:42;;;;;;;24.65;15.10;;;;;;;;;;4892583;29;20417;-60
2022/09/30 08:14:13;;;;;;;24.73;15.32;;;;;;;;;;4893477;29;20040;-62
2022/09/30 08:16:38;;;;;;;25.75;14.40;;;;;;;;;;4893169;29;20073;-61
2022/09/30 08:19:04;;;;;;;22.65;15.05;;;;;;;;;;4890864;29;20060;-60
2022/09/30 08:21:30;;;;;;;25.33;15.07;;;;;;;;;;4892567;29;20032;-60
2022/09/30 08:23:56;;;;;;;22.52;14.48;;;;;;;;;;4895331;29;20123;-61
2022/09/30 08:26:21;;;;;;;22.35;13.63;;;;;;;;;;4893604;29;20032;-60
2022/09/30 08:28:47;;;;;;;21.92;14.32;;;;;;;;;;4894568;29;20036;-61
2022/09/30 08:31:18;;;;;;;22.48;14.80;;;;;;;;;;4893330;29;20414;-60
2022/09/30 08:33:44;;;;;;;24.17;13.70;;;;;;;;;;4897676;29;20489;-58
2022/09/30 08:36:15;;;;;;;19.83;13.32;;;;;;;;;;4896103;29;20037;-60
2022/09/30 08:38:41;;;;;;;18.52;11.90;;;;;;;;;;4878279;29;20045;-60
2022/09/30 08:41:22;;;;;;;22.08;12.57;;;;;;;;;;4895433;29;20059;-60
2022/09/30 08:44:16;;;;;;;20.17;13.43;;;;;;;;;;4898115;29;20029;-60
2022/09/30 08:47:04;;;;;;;19.25;12.60;;;;;;;;;;4894427;29;20047;-60
2022/09/30 08:49:53;;;;;;;21.80;12.63;;;;;;;;;;4893681;29;20043;-61
2022/09/30 08:52:23;;;;;;;20.27;12.40;;;;;;;;;;4892964;29;20036;-60
2022/09/30 08:54:52;;;;;;;19.45;12.00;;;;;;;;;;4896709;29;20120;-60
2022/09/30 08:57:19;;;;;;;20.23;11.95;;;;;;;;;;4896458;29;20052;-59
2022/09/30 08:59:53;;;;;;;20.73;11.60;;;;;;;;;;4898033;29;20087;-60
2022/09/30 09:02:30;;;;;;;15.43;11.13;;;;;;;;;;4896524;29;20041;-59
2022/09/30 09:05:05;;;;;;;21.75;11.23;;;;;;;;;;4895820;29;20100;-60
2022/09/30 09:08:20;;;;;;;17.55;10.82;;;;;;;;;;4886223;29;20047;-60
2022/09/30 09:10:53;;;;;;;18.63;10.63;;;;;;;;;;4872342;29;20044;-60
2022/09/30 09:13:36;;;;;;;17.30;10.38;;;;;;;;;;4896233;29;20116;-60
2022/09/30 09:16:23;;;;;;;18.63;10.52;;;;;;;;;;4895102;29;20036;-60
2022/09/30 09:19:07;;;;;;;15.48;10.13;;;;;;;;;;4893873;29;20040;-59
2022/09/30 09:21:52;;;;;;;18.45;10.90;;;;;;;;;;4894095;29;20037;-60
2022/09/30 09:24:26;;;;;;;17.23;10.38;;;;;;;;;;4896335;29;20036;-59
2022/09/30 09:26:53;;;;;;;14.57;9.15;;;;;;;;;;4895259;29;20033;-59
2022/09/30 09:29:36;;;;;;;14.80;10.02;;;;;;;;;;4888003;29;20112;-59
2022/09/30 09:32:05;;;;;;;16.15;9.57;;;;;;;;;;4893371;29;20033;-59
2022/09/30 09:34:31;;;;;;;17.52;10.40;;;;;;;;;;4896225;29;20059;-61
2022/09/30 09:40:38;;;;;;;;;;;;;;;;;;4886058;29;20035;-61
2022/09/30 09:43:09;;;;;;;15.90;8.85;;;;;;;;;;4896327;29;19923;-61
2022/09/30 09:45:43;;;;;;;17.23;8.75;;;;;;;;;;4894829;29;20025;-63
2022/09/30 09:48:14;;;;;;;11.95;8.07;;;;;;;;;;4895069;29;20393;-60
2022/09/30 09:51:12;;;;;;;13.43;8.38;;;;;;;;;;4896986;29;20040;-60
2022/09/30 09:53:47;;;;;;;13.77;7.55;;;;;;;;;;4855698;29;20045;-62
2022/09/30 09:56:18;;;;;;;13.52;7.85;;;;;;;;;;4879110;29;20044;-60
2022/09/30 09:59:21;;;;;;;10.38;6.82;;;;;;;;;;4889835;29;20516;-60
2022/09/30 10:01:50;;;;;;;12.20;7.57;;;;;;;;;;4892569;29;20059;-61
2022/09/30 10:04:24;;;;;;;12.13;7.13;;;;;;;;;;4893496;29;20033;-59
2022/09/30 10:06:51;;;;;;;10.65;7.22;;;;;;;;;;4879839;29;20040;-60
2022/09/30 10:09:27;;;;;;;9.85;6.78;;;;;;;;;;4895229;29;20048;-60
2022/09/30 10:12:04;;;;;;;10.48;7.03;;;;;;;;;;4895747;29;20032;-61
2022/09/30 10:14:30;;;;;;;11.68;6.43;;;;;;;;;;4891800;29;20040;-61
2022/09/30 10:17:01;;;;;;;13.02;6.85;;;;;;;;;;4896972;29;20076;-60
2022/09/30 10:19:29;;;;;;;11.05;6.88;;;;;;;;;;4895456;29;20044;-60
2022/09/30 10:22:06;;;;;;;12.07;6.22;;;;;;;;;;4896802;29;20037;-60
2022/09/30 10:24:37;;;;;;;10.05;6.25;;;;;;;;;;4895027;29;20048;-63
2022/09/30 10:27:03;;;;;;;13.70;6.80;;;;;;;;;;4879385;29;20033;-60
2022/09/30 10:29:31;;;;;;;9.95;6.32;;;;;;;;;;4895886;29;20040;-63
2022/09/30 10:32:01;;;;;;;11.05;6.38;;;;;;;;;;4895622;29;20036;-59
2022/09/30 10:34:36;;;;;;;9.33;6.23;;;;;;;;;;4895593;29;20047;-60
2022/09/30 10:37:10;;;;;;;12.88;6.90;;;;;;;;;;4895180;29;20082;-61
2022/09/30 10:39:38;;;;;;;11.00;6.85;;;;;;;;;;4889509;29;20067;-59
2022/09/30 10:42:06;;;;;;;9.82;6.30;;;;;;;;;;4893429;29;20040;-62
2022/09/30 10:44:41;;;;;;;10.55;6.85;;;;;;;;;;4884218;29;20287;-62
2022/09/30 10:47:07;;;;;;;9.98;6.63;;;;;;;;;;4892967;29;20040;-61
2022/09/30 10:49:47;;;;;;;10.38;6.43;;;;;;;;;;4886598;29;20369;-60
2022/09/30 10:52:35;;;;;;;10.18;6.45;;;;;;;;;;4894206;29;20039;-61
2022/09/30 10:55:21;;;;;;;9.27;5.78;;;;;;;;;;4886450;29;20433;-61
2022/09/30 10:57:49;;;;;;;9.65;6.68;;;;;;;;;;4884801;29;20068;-61
2022/09/30 11:00:24;;;;;;;10.38;6.32;;;;;;;;;;4895249;29;20041;-60
2022/09/30 11:02:59;;;;;;;8.57;5.25;;;;;;;;;;4894603;29;20430;-62
2022/09/30 11:05:41;;;;;;;9.40;5.82;;;;;;;;;;4894034;29;20048;-61
2022/09/30 11:08:13;;;;;;;8.32;5.78;;;;;;;;;;4885669;29;20438;-62
2022/09/30 11:10:47;;;;;;;9.05;5.70;;;;;;;;;;4895147;29;20037;-60
2022/09/30 11:13:16;;;;;;;8.88;5.70;;;;;;;;;;4892762;29;20092;-59
2022/09/30 11:15:47;;;;;;;8.93;5.68;;;;;;;;;;4881724;29;20091;-59
2022/09/30 11:18:24;;;;;;;8.73;5.60;;;;;;;;;;4885822;29;20048;-59
2022/09/30 11:21:34;;;;;;;9.73;5.35;;;;;;;;;;4894029;29;20373;-60
2022/09/30 11:24:18;;;;;;;7.53;5.47;;;;;;;;;;4881853;29;20056;-59
2022/09/30 11:27:00;;;;;;;6.90;4.95;;;;;;;;;;4878075;29;20515;-61
2022/09/30 11:29:37;;;;;;;7.78;4.80;;;;;;;;;;4893440;29;20524;-61
2022/09/30 11:32:19;;;;;;;7.80;4.60;;;;;;;;;;4889488;29;20347;-61
2022/09/30 11:35:15;;;;;;;6.30;4.35;;;;;;;;;;4895683;29;20044;-61
2022/09/30 11:37:57;;;;;;;7.38;4.55;;;;;;;;;;4893952;29;20037;-61
2022/09/30 11:40:28;;;;;;;7.07;4.75;;;;;;;;;;4892677;29;20545;-61
2022/09/30 11:42:55;;;;;;;7.75;4.82;;;;;;;;;;4895656;29;20044;-62
2022/09/30 11:45:35;;;;;;;7.63;5.28;;;;;;;;;;4894088;29;20033;-61
2022/09/30 11:48:30;;;;;;;7.60;4.90;;;;;;;;;;4889982;29;20048;-61
2022/09/30 11:51:10;;;;;;;7.40;4.80;;;;;;;;;;4893873;29;20029;-62
2022/09/30 11:54:13;;;;;;;7.03;4.20;;;;;;;;;;4894524;29;20044;-62
2022/09/30 11:57:00;;;;;;;7.82;3.60;;;;;;;;;;4892342;29;20033;-62
2022/09/30 11:59:46;;;;;;;7.13;3.80;;;;;;;;;;4895067;29;20035;-61
2022/09/30 12:02:36;;;;;;;12.00;3.97;;;;;;;;;;4879039;29;20033;-60
2022/09/30 12:05:09;;;;;;;6.60;4.38;;;;;;;;;;4897611;29;20048;-62
2022/09/30 12:07:52;;;;;;;6.38;3.80;;;;;;;;;;4895277;29;20568;-62
2022/09/30 12:10:23;;;;;;;5.05;3.58;;;;;;;;;;4882130;29;20041;-66
2022/09/30 12:12:54;;;;;;;6.60;3.92;;;;;;;;;;4898528;29;20483;-64
2022/09/30 12:15:22;;;;;;;6.85;4.20;;;;;;;;;;4898189;29;20065;-64
2022/09/30 12:18:10;;;;;;;6.90;4.13;;;;;;;;;;4897351;29;20033;-64
2022/09/30 12:20:41;;;;;;;6.25;3.83;;;;;;;;;;4897693;29;20515;-64
2022/09/30 12:23:18;;;;;;;6.57;3.70;;;;;;;;;;4896427;29;20043;-63
2022/09/30 12:26:04;;;;;;;6.28;3.70;;;;;;;;;;4896130;29;20078;-62
2022/09/30 12:31:41;;;;;;;6.35;4.03;;;;;;;;;;4894299;29;20083;-63
2022/09/30 12:34:30;;;;;;;7.50;4.40;;;;;;;;;;4898542;29;20033;-63
2022/09/30 12:37:02;;;;;;;5.47;3.63;;;;;;;;;;4897718;29;20047;-65
2022/09/30 12:39:52;;;;;;;6.25;3.33;;;;;;;;;;4895809;29;20394;-65
2022/09/30 12:42:36;;;;;;;6.90;3.58;;;;;;;;;;4897615;29;20108;-65
2022/09/30 12:45:28;;;;;;;7.15;3.90;;;;;;;;;;4896591;29;20116;-63
2022/09/30 12:47:57;;;;;;;6.72;3.65;;;;;;;;;;4892214;29;20115;-67
2022/09/30 12:50:27;;;;;;;4.85;3.55;;;;;;;;;;4897104;29;20033;-64
2022/09/30 12:52:56;;;;;;;6.82;4.10;;;;;;;;;;4894809;29;20032;-67
2022/09/30 12:55:31;;;;;;;8.05;4.40;;;;;;;;;;4898206;29;20115;-65
2022/09/30 12:58:01;;;;;;;6.28;4.00;;;;;;;;;;4896804;29;20450;-66
2022/09/30 13:00:31;;;;;;;6.10;4.05;;;;;;;;;;4892025;29;20107;-67
2022/09/30 13:03:14;;;;;;;6.22;3.95;;;;;;;;;;4895706;29;20422;-66
2022/09/30 13:05:39;;;;;;;6.35;3.80;;;;;;;;;;4892889;29;20073;-62
2022/09/30 13:08:04;;;;;;;6.07;4.10;;;;;;;;;;4895171;29;20040;-62
2022/09/30 13:10:33;;;;;;;5.93;3.80;;;;;;;;;;4897795;29;20095;-62
2022/09/30 13:13:31;;;;;;;5.60;4.00;;;;;;;;;;4896761;29;20028;-61
2022/09/30 13:16:05;;;;;;;7.38;3.90;;;;;;;;;;4887969;29;20044;-61
2022/09/30 13:18:30;;;;;;;7.53;4.13;;;;;;;;;;4893810;29;20044;-62
2022/09/30 13:21:17;;;;;;;5.85;4.13;;;;;;;;;;4897737;29;20036;-63
2022/09/30 13:23:45;;;;;;;7.72;4.25;;;;;;;;;;4897102;29;20044;-63
2022/09/30 13:26:40;;;;;;;7.32;4.85;;;;;;;;;;4895261;29;20032;-62
2022/09/30 13:29:18;;;;;;;7.13;4.10;;;;;;;;;;4885744;29;20104;-62
2022/09/30 13:31:44;;;;;;;8.77;4.10;;;;;;;;;;4896060;29;20064;-62
2022/09/30 13:34:11;;;;;;;10.15;4.13;;;;;;;;;;4897036;29;20076;-62
2022/09/30 13:36:38;;;;;;;5.75;4.13;;;;;;;;;;4897120;29;20036;-62
2022/09/30 13:39:07;;;;;;;7.07;3.65;;;;;;;;;;4897633;29;20041;-60
2022/09/30 13:41:36;;;;;;;6.35;3.90;;;;;;;;;;4896219;29;20821;-60
2022/09/30 13:44:26;;;;;;;5.63;3.83;;;;;;;;;;4896309;29;20485;-60
2022/09/30 13:46:55;;;;;;;7.53;3.65;;;;;;;;;;4887655;29;20075;-60
2022/09/30 13:50:01;;;;;;;7.53;3.92;;;;;;;;;;4895565;29;20497;-59
2022/09/30 13:52:33;;;;;;;5.75;3.80;;;;;;;;;;4894154;29;20080;-60
2022/09/30 13:55:10;;;;;;;5.88;3.55;;;;;;;;;;4896464;29;20036;-60
2022/09/30 13:58:01;;;;;;;7.97;3.90;;;;;;;;;;4895815;29;20084;-60
2022/09/30 14:00:44;;;;;;;7.20;4.13;;;;;;;;;;4895541;29;20036;-59
2022/09/30 14:03:21;;;;;;;7.13;4.28;;;;;;;;;;4895295;29;20068;-60
2022/09/30 14:06:06;;;;;;;8.93;4.25;;;;;;;;;;4897660;29;20096;-60
2022/09/30 14:09:03;;;;;;;6.78;4.35;;;;;;;;;;4895418;29;20040;-60
2022/09/30 14:11:38;;;;;;;6.70;3.88;;;;;;;;;;4884816;29;20044;-60
2022/09/30 14:14:23;;;;;;;6.40;3.92;;;;;;;;;;4895901;29;20037;-60
2022/09/30 14:17:33;;;;;;;7.80;4.03;;;;;;;;;;4895450;29;20033;-59
2022/09/30 14:20:36;;;;;;;12.55;4.47;;;;;;;;;;4889869;29;20040;-60
2022/09/30 14:23:02;;;;;;;7.00;3.75;;;;;;;;;;4895937;29;20540;-59
2022/09/30 14:25:35;;;;;;;7.43;4.50;;;;;;;;;;4891855;29;20033;-60
2022/09/30 14:28:09;;;;;;;5.75;3.90;;;;;;;;;;4895625;29;20048;-60
2022/09/30 14:30:40;;;;;;;6.78;3.50;;;;;;;;;;4894601;29;20462;-60
2022/09/30 14:33:16;;;;;;;6.07;3.80;;;;;;;;;;4884641;29;20048;-60
2022/09/30 14:35:42;;;;;;;6.07;3.60;;;;;;;;;;4893484;29;20104;-60
2022/09/30 14:38:20;;;;;;;7.53;3.70;;;;;;;;;;4896736;29;20032;-60
2022/09/30 14:40:55;;;;;;;8.98;3.83;;;;;;;;;;4894644;29;20040;-60
2022/09/30 14:43:31;;;;;;;7.25;3.90;;;;;;;;;;4896493;29;20043;-60
2022/09/30 14:46:00;;;;;;;5.63;3.30;;;;;;;;;;4896784;29;20489;-61
2022/09/30 14:48:30;;;;;;;7.10;3.55;;;;;;;;;;4896332;29;20045;-59
2022/09/30 14:51:10;;;;;;;8.40;3.72;;;;;;;;;;4896984;29;20039;-59
2022/09/30 14:53:39;;;;;;;10.68;4.03;;;;;;;;;;4896173;29;20036;-60
2022/09/30 14:56:22;;;;;;;6.45;3.58;;;;;;;;;;4897365;29;20037;-59
2022/09/30 14:58:51;;;;;;;9.35;3.63;;;;;;;;;;4897314;29;20041;-59
2022/09/30 15:01:20;;;;;;;6.53;3.72;;;;;;;;;;4892666;29;20040;-59
2022/09/30 15:03:54;;;;;;;6.40;3.65;;;;;;;;;;4893704;29;20033;-59
2022/09/30 15:06:25;;;;;;;6.40;3.72;;;;;;;;;;4886603;29;20075;-59
2022/09/30 15:09:14;;;;;;;6.38;3.70;;;;;;;;;;4896040;29;20044;-59